createdAt,value
2023-05-04T00:12:03.904Z,8.13
2023-05-04T00:13:08.313Z,8.13
2023-05-04T00:14:15.070Z,8.11
2023-05-04T00:15:25.838Z,8.16
2023-05-04T00:20:27.331Z,8.13
2023-05-04T00:21:41.179Z,8.11
2023-05-04T00:22:46.966Z,8.14
2023-05-04T01:37:13.557Z,7.18
2023-05-04T02:53:31.445Z,17.20
2023-05-04T02:55:02.666Z,17.28
2023-05-04T02:56:16.139Z,17.52
2023-05-04T03:01:07.553Z,17.35
2023-05-04T03:06:02.382Z,16.07
2023-05-04T03:07:34.630Z,14.69
2023-05-04T03:08:39.196Z,14.31
2023-05-04T03:09:47.952Z,13.44
2023-05-04T03:10:53.999Z,13.49
2023-05-04T03:15:42.375Z,12.12
2023-05-04T03:20:46.274Z,11.45
2023-05-04T03:25:50.458Z,10.67
2023-05-04T07:16:07.142Z,27.01
2023-05-04T07:17:14.146Z,27.20
2023-05-04T07:18:16.403Z,26.79
2023-05-04T07:19:18.478Z,26.76
2023-05-04T07:20:25.711Z,27.06
2023-05-04T07:21:29.527Z,25.63
2023-05-04T07:22:32.618Z,26.10
2023-05-04T07:23:34.491Z,26.14
2023-05-04T07:24:36.598Z,26.66
2023-05-04T07:25:38.908Z,26.08
2023-05-04T07:26:40.739Z,25.24
2023-05-04T07:27:45.117Z,24.83
2023-05-04T07:28:47.113Z,25.93
2023-05-04T07:29:51.100Z,25.83
2023-05-04T07:30:53.503Z,26.00
2023-05-04T07:31:55.922Z,26.99
2023-05-04T07:32:57.832Z,25.35
2023-05-04T07:33:59.762Z,25.78
2023-05-04T07:35:01.716Z,26.96
2023-05-04T07:36:05.506Z,26.83
2023-05-04T07:37:15.025Z,25.89
2023-05-04T07:38:16.934Z,25.67
2023-05-04T07:39:18.898Z,26.47
2023-05-04T07:40:21.575Z,26.05
2023-05-04T07:41:43.169Z,27.00
2023-05-04T07:42:45.230Z,26.80
2023-05-04T07:43:47.155Z,27.33
2023-05-04T07:44:49.335Z,25.74
2023-05-04T07:45:53.589Z,26.11
2023-05-04T07:46:55.535Z,25.03
2023-05-04T07:47:57.521Z,24.31
2023-05-04T07:48:59.393Z,23.88
2023-05-04T07:50:01.365Z,23.16
2023-05-04T07:51:03.587Z,23.45
2023-05-04T07:52:12.835Z,24.74
2023-05-04T07:53:20.170Z,24.64
2023-05-04T07:54:31.576Z,24.76
2023-05-04T07:55:33.530Z,26.10
2023-05-04T07:56:45.224Z,26.91
2023-05-04T07:57:48.518Z,24.95
2023-05-04T07:58:56.796Z,25.39
2023-05-04T08:00:19.304Z,25.04
2023-05-04T08:01:26.263Z,23.74
2023-05-04T08:02:28.124Z,23.52
2023-05-04T08:03:44.251Z,23.83
2023-05-04T08:04:48.262Z,24.32
2023-05-04T08:05:55.746Z,24.20
2023-05-04T08:06:58.077Z,25.46
2023-05-04T08:08:00.064Z,25.33
2023-05-04T08:09:06.336Z,25.63
2023-05-04T08:10:09.093Z,25.09
2023-05-04T08:11:20.145Z,25.43
2023-05-04T08:12:32.067Z,25.47
2023-05-04T08:14:10.404Z,24.85
2023-05-04T08:15:17.662Z,25.56
2023-05-04T08:16:19.983Z,25.27
2023-05-04T08:17:26.357Z,25.16
2023-05-04T08:18:29.482Z,24.68
2023-05-04T08:19:31.285Z,25.07
2023-05-04T08:20:33.380Z,24.83
2023-05-04T08:21:35.743Z,24.74
2023-05-04T08:22:38.766Z,24.12
2023-05-04T08:23:40.680Z,23.98
2023-05-04T08:24:42.639Z,23.94
2023-05-04T08:25:44.539Z,23.46
2023-05-04T08:26:52.685Z,24.77
2023-05-04T08:28:09.905Z,24.16
2023-05-04T08:29:11.759Z,24.68
2023-05-04T08:30:13.959Z,24.48
2023-05-04T08:31:19.187Z,24.40
2023-05-04T08:32:21.012Z,24.07
2023-05-04T08:33:23.316Z,24.78
2023-05-04T08:34:25.248Z,24.62
2023-05-04T08:35:28.021Z,23.93
2023-05-04T08:36:30.724Z,24.90
2023-05-04T08:37:32.765Z,24.76
2023-05-04T08:38:34.882Z,24.70
2023-05-04T08:39:41.252Z,24.64
2023-05-04T08:40:43.794Z,23.97
2023-05-04T08:41:48.373Z,23.66
2023-05-04T08:42:53.665Z,23.05
2023-05-04T08:43:55.580Z,22.98
2023-05-04T08:44:59.456Z,23.39
2023-05-04T08:46:02.999Z,23.15
2023-05-04T08:47:13.324Z,22.12
2023-05-04T08:48:15.547Z,22.77
2023-05-04T08:49:18.894Z,22.79
2023-05-04T08:50:29.367Z,22.01
2023-05-04T08:51:35.248Z,21.85
2023-05-04T08:52:40.607Z,21.25
2023-05-04T08:53:53.550Z,22.27
2023-05-04T08:54:58.560Z,22.95
2023-05-04T08:56:04.390Z,21.57
2023-05-04T08:57:06.489Z,21.29
2023-05-04T08:58:17.505Z,20.91
2023-05-04T08:59:21.261Z,20.71
2023-05-04T09:00:23.510Z,20.77
2023-05-04T09:01:38.019Z,20.99
2023-05-04T09:02:40.627Z,21.40
2023-05-04T09:03:52.163Z,22.28
2023-05-04T09:04:55.468Z,22.17
2023-05-04T09:06:00.358Z,22.16
2023-05-04T09:07:03.514Z,22.47
2023-05-04T09:08:06.769Z,22.20
2023-05-04T09:09:10.133Z,21.36
2023-05-04T09:10:12.170Z,20.42
2023-05-04T09:11:21.784Z,20.43
2023-05-04T09:12:27.366Z,20.20
2023-05-04T09:13:29.394Z,20.35
2023-05-04T09:14:36.475Z,20.41
2023-05-04T09:15:38.604Z,20.89
2023-05-04T09:16:46.480Z,21.13
2023-05-04T09:17:57.746Z,20.83
2023-05-04T09:19:04.694Z,20.96
2023-05-04T09:20:08.009Z,20.61
2023-05-04T09:21:11.534Z,20.11
2023-05-04T09:22:28.256Z,20.27
2023-05-04T09:23:33.407Z,19.83
2023-05-04T09:24:35.612Z,19.98
2023-05-04T09:26:09.088Z,20.18
2023-05-04T09:27:16.018Z,20.06
2023-05-04T09:28:20.464Z,19.28
2023-05-04T09:29:25.651Z,18.92
2023-05-04T09:30:28.275Z,18.83
2023-05-04T09:31:45.471Z,19.17
2023-05-04T09:32:49.657Z,19.04
2023-05-04T09:33:53.524Z,19.57
2023-05-04T09:34:55.817Z,19.63
2023-05-04T09:36:00.239Z,19.28
2023-05-04T09:37:05.224Z,19.24
2023-05-04T09:38:07.657Z,19.28
2023-05-04T09:39:13.712Z,18.76
2023-05-04T09:40:15.965Z,18.96
2023-05-04T09:41:18.421Z,19.19
2023-05-04T09:42:24.012Z,19.07
2023-05-04T09:43:41.812Z,18.59
2023-05-04T09:45:02.591Z,18.68
2023-05-04T09:46:16.221Z,18.61
2023-05-04T09:47:18.875Z,18.62
2023-05-04T09:48:27.458Z,18.64
2023-05-04T09:49:34.254Z,18.57
2023-05-04T09:50:38.122Z,18.16
2023-05-04T09:51:43.036Z,18.03
2023-05-04T09:52:49.920Z,18.35
2023-05-04T09:53:52.819Z,18.45
2023-05-04T09:54:56.671Z,18.67
2023-05-04T09:56:39.059Z,17.20
2023-05-04T09:57:42.756Z,16.75
2023-05-04T09:58:46.369Z,16.96
2023-05-04T09:59:49.224Z,17.23
2023-05-04T10:00:54.828Z,16.86
2023-05-04T10:02:00.412Z,16.95
2023-05-04T10:03:07.206Z,16.95
2023-05-04T10:04:09.564Z,16.71
2023-05-04T10:05:18.291Z,16.75
2023-05-04T10:06:33.145Z,17.14
2023-05-04T10:07:35.823Z,17.13
2023-05-04T10:08:38.794Z,17.29
2023-05-04T10:12:17.475Z,16.92
2023-05-04T10:20:52.652Z,17.37
2023-05-04T11:48:31.879Z,16.36
2023-05-04T11:50:53.738Z,16.42
2023-05-04T12:18:12.650Z,16.60
2023-05-04T13:02:02.155Z,16.75
2023-05-04T13:08:42.006Z,16.62
2023-05-04T13:33:37.041Z,17.25
2023-05-04T13:39:03.624Z,17.02
2023-05-04T13:44:22.311Z,16.79
2023-05-04T13:46:40.723Z,16.75
2023-05-04T14:10:51.925Z,16.78
2023-05-04T14:20:31.655Z,16.41
2023-05-04T14:24:07.182Z,16.37
2023-05-04T14:25:24.065Z,16.50
2023-05-04T14:29:21.732Z,16.06
2023-05-04T15:35:47.083Z,15.74
2023-05-04T15:45:48.828Z,15.59
2023-05-04T22:59:26.976Z,10.28
2023-05-04T23:00:30.650Z,10.26
2023-05-04T23:01:33.343Z,10.30
2023-05-04T23:02:38.917Z,10.33
2023-05-04T23:04:35.823Z,10.41
2023-05-04T23:05:44.813Z,10.41
2023-05-04T23:06:51.212Z,10.42
2023-05-04T23:07:53.950Z,10.51
